Terminal Aerodrome Forecast
Issued by NWS

Home | Current Version | Previous Version | Text Only | Print | Product List | Glossary On
Versions: 1 2 3 4 5 6 7 8 9 10 11 12 13 14 15 16 17
000
FTUS44 KCRP 270520
TAFLRD
TAF
KLRD 270520Z 2706/2806 09007KT P6SM SCT017 OVC250
      TEMPO 2712/2716 BKN017
     FM271600 06006KT P6SM VCSH SCT015 BKN110 PROB30 2719/2801 TSRA
      BKN050CB
     FM280100 VRB04KT P6SM SCT030=

USA.gov is the U.S. government's official web portal to all federal, state and local government web resources and services.